createdAt,value
2022-10-08T00:01:06.699Z,14.93
2022-10-08T00:03:37.272Z,14.92
2022-10-08T00:06:06.839Z,14.89
2022-10-08T00:08:37.058Z,14.88
2022-10-08T00:11:07.506Z,14.89
2022-10-08T00:13:41.624Z,14.91
2022-10-08T00:16:10.047Z,14.93
2022-10-08T00:18:39.463Z,14.94
2022-10-08T00:21:09.772Z,14.96
2022-10-08T00:23:37.371Z,14.96
2022-10-08T00:26:07.165Z,14.96
2022-10-08T00:28:35.480Z,14.97
2022-10-08T00:31:07.415Z,14.98
2022-10-08T00:33:36.095Z,14.99
2022-10-08T00:36:06.043Z,15.02
2022-10-08T00:38:33.842Z,15.01
2022-10-08T00:41:01.901Z,15.01
2022-10-08T00:43:42.383Z,14.98
2022-10-08T00:46:20.084Z,14.98
2022-10-08T00:48:48.265Z,14.94
2022-10-08T00:51:17.427Z,14.96
2022-10-08T00:53:45.102Z,14.97
2022-10-08T00:56:12.768Z,14.98
2022-10-08T00:58:41.891Z,14.96
2022-10-08T01:01:09.732Z,14.99
2022-10-08T01:03:37.500Z,15.02
2022-10-08T01:06:10.710Z,15.05
2022-10-08T01:08:45.524Z,15.06
2022-10-08T01:11:21.304Z,15.11
2022-10-08T01:13:53.465Z,15.13
2022-10-08T01:16:28.828Z,15.11
2022-10-08T01:19:02.087Z,15.17
2022-10-08T01:21:39.512Z,15.16
2022-10-08T01:24:49.022Z,15.17
2022-10-08T01:27:23.178Z,15.14
2022-10-08T01:29:51.956Z,15.15
2022-10-08T01:32:22.956Z,15.18
2022-10-08T01:34:53.778Z,15.20
2022-10-08T01:37:25.394Z,15.21
2022-10-08T01:39:54.492Z,15.21
2022-10-08T01:42:24.693Z,15.24
2022-10-08T01:44:54.964Z,15.24
2022-10-08T01:47:27.821Z,15.23
2022-10-08T01:49:58.395Z,15.22
2022-10-08T01:52:29.001Z,15.17
2022-10-08T01:54:59.900Z,15.24
2022-10-08T01:57:29.388Z,15.20
2022-10-08T01:59:59.797Z,15.18
2022-10-08T02:02:27.872Z,15.16
2022-10-08T02:04:56.933Z,15.05
2022-10-08T02:07:26.910Z,15.07
2022-10-08T02:10:04.831Z,15.05
2022-10-08T02:12:33.931Z,15.06
2022-10-08T02:15:04.435Z,15.09
2022-10-08T02:17:38.117Z,15.07
2022-10-08T02:20:12.235Z,15.05
2022-10-08T02:22:42.723Z,15.02
2022-10-08T02:25:14.110Z,14.98
2022-10-08T02:27:49.271Z,15.01
2022-10-08T02:30:16.985Z,15.02
2022-10-08T02:32:50.830Z,15.03
2022-10-08T02:35:22.870Z,15.00
2022-10-08T02:37:56.055Z,14.99
2022-10-08T02:40:24.424Z,14.96
2022-10-08T02:42:57.200Z,14.97
2022-10-08T02:45:26.894Z,15.00
2022-10-08T02:47:57.913Z,14.96
2022-10-08T02:50:27.646Z,14.98
2022-10-08T02:52:56.063Z,15.00
2022-10-08T02:55:29.932Z,15.00
2022-10-08T02:58:02.051Z,15.01
2022-10-08T03:00:35.243Z,15.04
2022-10-08T03:03:09.566Z,15.04
2022-10-08T03:05:39.879Z,14.99
2022-10-08T03:08:08.898Z,14.99
2022-10-08T03:10:39.506Z,15.02
2022-10-08T03:13:08.989Z,15.04
2022-10-08T03:15:37.907Z,15.01
2022-10-08T03:18:08.710Z,15.00
2022-10-08T03:20:40.949Z,15.02
2022-10-08T03:23:08.605Z,15.02
2022-10-08T03:25:36.204Z,15.05
2022-10-08T03:28:03.885Z,15.04
2022-10-08T03:30:33.048Z,15.06
2022-10-08T03:33:00.689Z,15.06
2022-10-08T03:35:28.312Z,15.06
2022-10-08T03:37:55.949Z,15.05
2022-10-08T03:40:23.517Z,15.05
2022-10-08T03:42:52.355Z,15.05
2022-10-08T03:45:19.957Z,15.05
2022-10-08T03:47:52.817Z,15.04
2022-10-08T03:50:20.865Z,15.03
2022-10-08T03:52:49.033Z,14.99
2022-10-08T03:55:17.245Z,14.98
2022-10-08T03:57:45.063Z,14.98
2022-10-08T04:00:13.751Z,14.98
2022-10-08T04:02:41.399Z,14.97
2022-10-08T04:05:10.845Z,14.96
2022-10-08T04:07:38.464Z,14.95
2022-10-08T04:10:06.771Z,14.92
2022-10-08T04:12:34.433Z,14.88
2022-10-08T04:15:02.044Z,14.90
2022-10-08T04:17:29.651Z,14.90
2022-10-08T04:19:57.320Z,14.87
2022-10-08T04:22:26.327Z,14.88
2022-10-08T04:24:53.967Z,14.86
2022-10-08T04:27:21.981Z,14.84
2022-10-08T04:29:49.609Z,14.78
2022-10-08T04:32:17.273Z,14.77
2022-10-08T04:34:44.948Z,14.70
2022-10-08T04:37:12.666Z,14.72
2022-10-08T04:39:41.662Z,14.71
2022-10-08T04:42:09.254Z,14.70
2022-10-08T04:44:36.925Z,14.69
2022-10-08T04:47:04.614Z,14.69
2022-10-08T04:49:32.243Z,14.69
2022-10-08T04:51:59.849Z,14.66
2022-10-08T04:54:27.578Z,14.62
2022-10-08T04:56:56.686Z,14.65
2022-10-08T04:59:24.391Z,14.65
2022-10-08T05:01:52.848Z,14.64
2022-10-08T05:04:20.629Z,14.62
2022-10-08T05:06:48.252Z,14.64
2022-10-08T05:09:16.133Z,14.63
2022-10-08T05:11:43.793Z,14.63
2022-10-08T05:14:12.847Z,14.65
2022-10-08T05:16:40.502Z,14.68
2022-10-08T05:19:08.095Z,14.68
2022-10-08T05:21:35.733Z,14.69
2022-10-08T05:24:05.142Z,14.68
2022-10-08T05:26:57.707Z,14.66
2022-10-08T05:29:23.580Z,14.65
2022-10-08T05:31:51.212Z,14.67
2022-10-08T05:34:18.830Z,14.69
2022-10-08T05:36:46.521Z,14.67
2022-10-08T05:39:14.438Z,14.61
2022-10-08T05:41:42.636Z,14.63
2022-10-08T05:44:11.776Z,14.63
2022-10-08T05:46:41.375Z,14.64
2022-10-08T05:49:10.071Z,14.63
2022-10-08T05:51:38.601Z,14.62
2022-10-08T05:54:06.482Z,14.60
2022-10-08T05:56:34.184Z,14.64
2022-10-08T05:59:01.845Z,14.63
2022-10-08T06:01:31.283Z,14.65
2022-10-08T06:04:07.198Z,14.65
2022-10-08T06:06:36.299Z,14.66
2022-10-08T06:09:04.412Z,14.65
2022-10-08T06:11:34.171Z,14.63
2022-10-08T06:14:02.263Z,14.65
2022-10-08T06:16:31.114Z,14.64
2022-10-08T06:19:01.957Z,14.66
2022-10-08T06:21:30.463Z,14.61
2022-10-08T06:23:59.600Z,14.59
2022-10-08T06:26:35.109Z,14.60
2022-10-08T06:29:05.551Z,14.60
2022-10-08T06:31:33.804Z,14.60
2022-10-08T06:34:04.322Z,14.56
2022-10-08T06:36:32.919Z,14.58
2022-10-08T06:39:01.840Z,14.58
2022-10-08T06:41:33.243Z,14.57
2022-10-08T06:44:00.824Z,14.57
2022-10-08T06:46:31.141Z,14.58
2022-10-08T06:48:59.081Z,14.58
2022-10-08T06:51:28.511Z,14.55
2022-10-08T06:54:01.503Z,14.56
2022-10-08T06:56:33.756Z,14.56
2022-10-08T06:59:01.385Z,14.55
2022-10-08T07:01:33.169Z,14.56
2022-10-08T07:04:02.264Z,14.56
2022-10-08T07:06:31.303Z,14.58
2022-10-08T07:09:00.854Z,14.61
2022-10-08T07:11:29.518Z,14.62
2022-10-08T07:13:57.164Z,14.65
2022-10-08T07:16:26.097Z,14.67
2022-10-08T07:18:55.162Z,14.68
2022-10-08T07:21:23.671Z,14.68
2022-10-08T07:23:52.966Z,14.69
2022-10-08T07:26:22.562Z,14.67
2022-10-08T07:28:52.974Z,14.71
2022-10-08T07:31:22.342Z,14.65
2022-10-08T07:33:50.349Z,14.71
2022-10-08T07:36:19.690Z,14.69
2022-10-08T07:38:48.070Z,14.64
2022-10-08T07:41:17.237Z,14.58
2022-10-08T07:43:44.861Z,14.59
2022-10-08T07:46:14.118Z,14.57
2022-10-08T07:48:42.098Z,14.53
2022-10-08T07:51:10.795Z,14.59
2022-10-08T07:53:38.633Z,14.60
2022-10-08T07:56:07.202Z,14.61
2022-10-08T07:58:36.686Z,14.65
2022-10-08T08:01:06.575Z,14.68
2022-10-08T08:03:34.371Z,14.70
2022-10-08T08:06:02.439Z,14.70
2022-10-08T08:08:30.160Z,14.70
2022-10-08T08:10:58.892Z,14.65
2022-10-08T08:13:26.774Z,14.70
2022-10-08T08:15:59.678Z,14.74
2022-10-08T08:18:29.988Z,14.77
2022-10-08T08:21:01.027Z,14.84
2022-10-08T08:23:31.862Z,14.84
2022-10-08T08:26:01.862Z,14.85
2022-10-08T08:28:29.887Z,14.85
2022-10-08T08:31:08.076Z,14.90
2022-10-08T08:33:35.806Z,14.93
2022-10-08T08:36:03.534Z,14.96
2022-10-08T08:38:31.274Z,15.04
2022-10-08T08:41:12.687Z,15.05
2022-10-08T08:43:41.224Z,15.12
2022-10-08T08:46:11.999Z,15.15
2022-10-08T08:48:40.948Z,15.20
2022-10-08T08:51:08.651Z,15.26
2022-10-08T08:53:36.306Z,15.26
2022-10-08T08:56:06.541Z,15.26
2022-10-08T08:58:39.648Z,15.27
2022-10-08T09:01:17.989Z,15.31
2022-10-08T09:03:48.875Z,15.35
2022-10-08T09:06:19.902Z,15.40
2022-10-08T09:08:51.285Z,15.44
2022-10-08T09:11:21.652Z,15.41
2022-10-08T09:13:52.271Z,15.45
2022-10-08T09:16:21.295Z,15.44
2022-10-08T09:18:50.075Z,15.44
2022-10-08T09:21:18.201Z,15.44
2022-10-08T09:23:46.340Z,15.47
2022-10-08T09:26:16.651Z,15.47
2022-10-08T09:28:46.341Z,15.48
2022-10-08T09:31:30.092Z,15.47
2022-10-08T09:34:01.538Z,15.53
2022-10-08T09:36:31.610Z,15.52
2022-10-08T09:39:00.137Z,15.50
2022-10-08T09:41:29.040Z,15.50
2022-10-08T09:44:12.649Z,15.50
2022-10-08T09:46:41.725Z,15.47
2022-10-08T09:49:26.367Z,15.49
2022-10-08T09:51:54.570Z,15.51
2022-10-08T09:57:05.338Z,15.59
2022-10-08T09:59:38.906Z,15.64
2022-10-08T10:02:10.168Z,15.66
2022-10-08T10:04:40.292Z,15.72
2022-10-08T10:07:07.991Z,15.81
2022-10-08T10:09:42.114Z,15.89
2022-10-08T10:12:18.555Z,15.94
2022-10-08T10:14:47.783Z,15.97
2022-10-08T10:17:20.324Z,16.05
2022-10-08T10:19:52.876Z,16.11
2022-10-08T10:22:23.013Z,16.12
2022-10-08T10:24:54.794Z,16.15
2022-10-08T10:27:30.398Z,16.21
2022-10-08T10:30:06.160Z,16.22
2022-10-08T10:32:38.075Z,16.25
2022-10-08T10:35:10.999Z,16.23
2022-10-08T10:37:44.788Z,16.26
2022-10-08T10:40:24.647Z,16.23
2022-10-08T10:42:57.451Z,16.23
2022-10-08T10:45:27.602Z,16.26
2022-10-08T10:47:55.406Z,16.26
2022-10-08T10:50:29.613Z,16.20
2022-10-08T10:53:02.385Z,16.17
2022-10-08T10:55:33.160Z,16.10
2022-10-08T10:58:23.836Z,16.04
2022-10-08T11:00:58.985Z,16.00
2022-10-08T11:03:32.264Z,15.96
2022-10-08T11:06:10.826Z,15.91
2022-10-08T11:08:43.681Z,15.92
2022-10-08T11:11:52.391Z,15.95
2022-10-08T11:14:37.654Z,15.99
2022-10-08T11:17:13.043Z,16.05
2022-10-08T11:19:46.467Z,16.11
2022-10-08T11:22:19.402Z,16.19
2022-10-08T11:25:04.090Z,16.20
2022-10-08T11:27:43.645Z,16.33
2022-10-08T11:30:14.296Z,16.39
2022-10-08T11:32:44.807Z,16.40
2022-10-08T11:35:22.710Z,16.43
2022-10-08T11:37:52.683Z,16.50
2022-10-08T11:40:24.166Z,16.54
2022-10-08T11:45:34.002Z,16.21
2022-10-08T11:48:04.444Z,16.02
2022-10-08T11:50:36.643Z,15.84
2022-10-08T11:53:14.910Z,15.69
2022-10-08T11:55:50.850Z,15.55
2022-10-08T11:58:23.703Z,15.41
2022-10-08T12:00:54.316Z,15.29
2022-10-08T12:03:24.861Z,15.19
2022-10-08T12:05:54.501Z,15.05
2022-10-08T12:08:54.726Z,15.07
2022-10-08T12:11:48.308Z,15.10
2022-10-08T12:14:46.754Z,15.21
2022-10-08T12:17:16.001Z,15.25
2022-10-08T12:20:04.232Z,15.41
2022-10-08T12:22:46.899Z,15.50
2022-10-08T12:25:49.965Z,15.55
2022-10-08T12:28:54.513Z,15.65
2022-10-08T12:31:28.157Z,15.75
2022-10-08T12:33:58.822Z,15.80
2022-10-08T12:36:33.214Z,15.86
2022-10-08T12:39:04.552Z,15.94
2022-10-08T12:41:35.685Z,16.02
2022-10-08T12:44:06.414Z,16.11
2022-10-08T12:46:39.505Z,16.20
2022-10-08T12:49:13.245Z,16.20
2022-10-08T12:51:45.730Z,16.30
2022-10-08T12:54:19.016Z,16.36
2022-10-08T12:56:47.766Z,16.46
2022-10-08T12:59:15.635Z,16.54
2022-10-08T13:01:44.071Z,16.64
2022-10-08T13:04:18.893Z,16.71
2022-10-08T13:06:47.805Z,16.77
2022-10-08T13:09:26.269Z,16.81
2022-10-08T13:11:58.177Z,16.88
2022-10-08T13:14:31.501Z,16.97
2022-10-08T13:16:59.359Z,17.05
2022-10-08T13:19:31.449Z,17.08
2022-10-08T13:22:00.518Z,17.01
2022-10-08T13:24:32.606Z,17.02
2022-10-08T13:27:00.253Z,16.99
2022-10-08T13:29:30.312Z,16.92
2022-10-08T13:31:59.754Z,17.00
2022-10-08T13:34:30.763Z,17.07
2022-10-08T13:36:59.765Z,17.13
2022-10-08T13:39:29.099Z,17.18
2022-10-08T13:41:58.420Z,17.22
2022-10-08T13:44:26.984Z,17.28
2022-10-08T13:46:54.854Z,17.30
2022-10-08T13:50:26.815Z,17.29
2022-10-08T13:52:57.112Z,17.30
2022-10-08T13:55:27.257Z,17.26
2022-10-08T13:57:55.421Z,17.29
2022-10-08T14:00:23.938Z,17.32
2022-10-08T14:02:52.211Z,17.31
2022-10-08T14:05:20.075Z,17.31
2022-10-08T14:07:50.416Z,17.29
2022-10-08T14:10:19.347Z,17.26
2022-10-08T14:12:47.182Z,17.27
2022-10-08T14:15:16.532Z,17.30
2022-10-08T14:17:44.531Z,17.29
2022-10-08T14:20:12.946Z,17.29
2022-10-08T14:22:40.581Z,17.26
2022-10-08T14:25:16.333Z,17.19
2022-10-08T14:27:44.180Z,17.14
2022-10-08T14:30:13.504Z,17.13
2022-10-08T14:32:41.780Z,17.14
2022-10-08T14:35:10.345Z,17.10
2022-10-08T14:37:38.228Z,17.08
2022-10-08T14:40:08.309Z,17.07
2022-10-08T14:42:37.441Z,17.09
2022-10-08T14:45:05.766Z,17.06
2022-10-08T14:47:33.457Z,17.06
2022-10-08T14:50:01.063Z,17.03
2022-10-08T14:52:28.682Z,16.98
2022-10-08T14:54:56.395Z,16.90
2022-10-08T14:57:24.038Z,16.82
2022-10-08T14:59:53.074Z,16.80
2022-10-08T15:02:20.739Z,16.80
2022-10-08T15:04:48.409Z,16.80
2022-10-08T15:07:18.197Z,16.80
2022-10-08T15:09:45.997Z,16.81
2022-10-08T15:12:13.714Z,16.78
2022-10-08T15:14:41.367Z,16.79
2022-10-08T15:17:10.499Z,16.79
2022-10-08T15:19:38.171Z,16.80
2022-10-08T15:22:06.133Z,16.81
2022-10-08T15:24:34.002Z,16.85
2022-10-08T15:27:01.768Z,16.85
2022-10-08T15:29:29.410Z,16.86
2022-10-08T15:31:57.101Z,16.83
2022-10-08T15:34:26.339Z,16.79
2022-10-08T15:36:54.854Z,16.76
2022-10-08T15:39:22.799Z,16.73
2022-10-08T15:41:51.620Z,16.67
2022-10-08T15:44:21.056Z,16.63
2022-10-08T15:46:50.017Z,16.57
2022-10-08T15:49:17.935Z,16.53
2022-10-08T15:51:46.980Z,16.52
2022-10-08T15:54:14.603Z,16.50
2022-10-08T15:56:42.238Z,16.49
2022-10-08T15:59:09.876Z,16.48
2022-10-08T16:01:37.738Z,16.46
2022-10-08T16:04:05.439Z,16.46
2022-10-08T16:06:34.797Z,16.44
2022-10-08T16:09:04.857Z,16.42
2022-10-08T16:11:33.685Z,16.44
2022-10-08T16:14:02.893Z,16.46
2022-10-08T16:16:30.548Z,16.47
2022-10-08T16:19:00.091Z,16.45
2022-10-08T16:23:36.544Z,16.43
2022-10-08T16:26:05.594Z,16.36
2022-10-08T16:28:34.865Z,16.30
2022-10-08T16:31:03.199Z,16.25
2022-10-08T16:33:31.079Z,16.22
2022-10-08T16:36:02.719Z,16.17
2022-10-08T16:38:31.230Z,16.12
2022-10-08T16:41:13.227Z,16.04
2022-10-08T16:43:41.333Z,16.06
2022-10-08T16:46:15.343Z,16.04
2022-10-08T16:48:43.024Z,16.05
2022-10-08T16:51:11.597Z,16.00
2022-10-08T16:53:39.268Z,16.00
2022-10-08T16:56:08.322Z,15.95
2022-10-08T16:58:35.922Z,15.92
2022-10-08T17:01:08.319Z,15.88
2022-10-08T17:03:36.159Z,15.83
2022-10-08T17:06:04.419Z,15.79
2022-10-08T17:08:32.124Z,15.75
2022-10-08T17:11:04.569Z,15.68
2022-10-08T17:13:33.649Z,15.67
2022-10-08T17:16:02.047Z,15.63
2022-10-08T17:18:30.441Z,15.57
2022-10-08T17:20:58.782Z,15.56
2022-10-08T17:23:27.508Z,15.54
2022-10-08T17:25:56.624Z,15.52
2022-10-08T17:28:28.342Z,15.49
2022-10-08T17:30:58.959Z,15.45
2022-10-08T17:33:27.082Z,15.40
2022-10-08T17:36:01.134Z,15.39
2022-10-08T17:38:29.154Z,15.39
2022-10-08T17:40:56.859Z,15.38
2022-10-08T17:43:24.905Z,15.35
2022-10-08T17:45:52.668Z,15.29
2022-10-08T17:48:22.060Z,15.32
2022-10-08T17:50:50.995Z,15.28
2022-10-08T17:53:18.653Z,15.28
2022-10-08T17:55:46.271Z,15.27
2022-10-08T17:58:14.042Z,15.26
2022-10-08T18:00:41.666Z,15.26
2022-10-08T18:03:10.075Z,15.24
2022-10-08T18:05:39.149Z,15.23
2022-10-08T18:08:06.727Z,15.22
2022-10-08T18:10:37.935Z,15.24
2022-10-08T18:13:05.578Z,15.26
2022-10-08T18:15:33.270Z,15.27
2022-10-08T18:18:00.913Z,15.28
2022-10-08T18:20:28.534Z,15.28
2022-10-08T18:22:57.572Z,15.27
2022-10-08T18:25:26.322Z,15.25
2022-10-08T18:27:56.325Z,15.24
2022-10-08T18:30:24.001Z,15.20
2022-10-08T18:32:51.614Z,15.18
2022-10-08T18:35:19.317Z,15.11
2022-10-08T18:37:47.721Z,15.10
2022-10-08T18:40:16.798Z,15.06
2022-10-08T18:42:44.580Z,15.04
2022-10-08T18:45:12.734Z,15.01
2022-10-08T18:47:40.305Z,14.97
2022-10-08T18:50:09.001Z,14.96
2022-10-08T18:52:36.772Z,14.93
2022-10-08T18:55:04.640Z,14.90
2022-10-08T18:57:33.902Z,14.88
2022-10-08T19:00:01.515Z,14.84
2022-10-08T19:02:29.543Z,14.79
2022-10-08T19:04:57.991Z,14.74
2022-10-08T19:07:25.642Z,14.75
2022-10-08T19:09:53.584Z,14.75
2022-10-08T19:12:21.239Z,14.73
2022-10-08T19:14:50.811Z,14.70
2022-10-08T19:17:18.417Z,14.68
2022-10-08T19:19:46.002Z,14.63
2022-10-08T19:22:13.699Z,14.61
2022-10-08T19:24:41.402Z,14.57
2022-10-08T19:27:09.049Z,14.53
2022-10-08T19:29:36.685Z,14.45
2022-10-08T19:32:05.721Z,14.41
2022-10-08T19:34:33.470Z,14.44
2022-10-08T19:37:01.195Z,14.39
2022-10-08T19:39:30.804Z,14.35
2022-10-08T19:41:58.739Z,14.31
2022-10-08T19:44:26.871Z,14.28
2022-10-08T19:46:54.625Z,14.25
2022-10-08T19:49:23.793Z,14.21
2022-10-08T19:51:51.442Z,14.17
2022-10-08T19:54:19.086Z,14.12
2022-10-08T19:56:46.725Z,14.08
2022-10-08T19:59:17.881Z,14.07
2022-10-08T20:01:45.720Z,14.05
2022-10-08T20:04:14.349Z,14.02
2022-10-08T20:06:44.028Z,13.98
2022-10-08T20:09:13.342Z,13.93
2022-10-08T20:11:41.899Z,13.88
2022-10-08T20:14:10.242Z,13.85
2022-10-08T20:16:40.653Z,13.83
2022-10-08T20:19:10.017Z,13.81
2022-10-08T20:21:38.808Z,13.79
2022-10-08T20:24:08.102Z,13.75
2022-10-08T20:26:37.674Z,13.74
2022-10-08T20:29:07.179Z,13.73
2022-10-08T20:31:36.459Z,13.72
2022-10-08T20:34:05.537Z,13.70
2022-10-08T20:36:33.784Z,13.69
2022-10-08T20:39:01.566Z,13.66
2022-10-08T20:41:31.406Z,13.64
2022-10-08T20:44:02.193Z,13.61
2022-10-08T20:46:30.332Z,13.60
2022-10-08T20:48:58.018Z,13.56
2022-10-08T20:51:27.069Z,13.51
2022-10-08T20:53:56.311Z,13.50
2022-10-08T20:56:24.998Z,13.46
2022-10-08T20:58:54.086Z,13.43
2022-10-08T21:01:23.549Z,13.41
2022-10-08T21:03:51.657Z,13.41
2022-10-08T21:06:21.015Z,13.39
2022-10-08T21:08:50.718Z,13.35
2022-10-08T21:11:19.777Z,13.33
2022-10-08T21:13:47.961Z,13.28
2022-10-08T21:17:40.289Z,13.37
2022-10-08T21:20:08.405Z,13.37
2022-10-08T21:22:36.055Z,13.33
2022-10-08T21:25:03.676Z,13.26
2022-10-08T21:27:31.331Z,13.23
2022-10-08T21:29:59.074Z,13.19
2022-10-08T21:32:26.694Z,13.15
2022-10-08T21:34:55.832Z,13.13
2022-10-08T21:37:23.575Z,13.09
2022-10-08T21:39:52.247Z,13.06
2022-10-08T21:42:19.863Z,13.02
2022-10-08T21:44:47.598Z,13.01
2022-10-08T21:47:15.261Z,12.97
2022-10-08T21:49:42.943Z,12.94
2022-10-08T21:52:12.243Z,12.92
2022-10-08T21:54:39.914Z,12.92
2022-10-08T21:57:07.570Z,12.90
2022-10-08T21:59:35.219Z,12.90
2022-10-08T22:02:03.330Z,12.88
2022-10-08T22:04:31.047Z,12.85
2022-10-08T22:06:59.489Z,12.83
2022-10-08T22:09:30.091Z,12.79
2022-10-08T22:11:59.028Z,12.75
2022-10-08T22:14:26.925Z,12.79
2022-10-08T22:16:54.587Z,12.78
2022-10-08T22:19:22.332Z,12.77
2022-10-08T22:21:50.132Z,12.75
2022-10-08T22:24:17.794Z,12.73
2022-10-08T22:26:47.869Z,12.67
2022-10-08T22:29:16.136Z,12.65
2022-10-08T22:31:43.867Z,12.63
2022-10-08T22:34:11.858Z,12.61
2022-10-08T22:36:41.811Z,12.56
2022-10-08T22:39:09.894Z,12.55
2022-10-08T22:41:37.630Z,12.53
2022-10-08T22:44:06.735Z,12.51
2022-10-08T22:46:37.685Z,12.48
2022-10-08T22:49:07.868Z,12.48
2022-10-08T22:51:36.122Z,12.44
2022-10-08T22:54:03.941Z,12.42
2022-10-08T22:56:32.440Z,12.42
2022-10-08T22:59:00.768Z,12.38
2022-10-08T23:01:31.062Z,12.31
2022-10-08T23:03:59.069Z,12.33
2022-10-08T23:06:29.122Z,12.28
2022-10-08T23:08:58.940Z,12.24
2022-10-08T23:11:27.627Z,12.24
2022-10-08T23:13:56.491Z,12.23
2022-10-08T23:16:25.368Z,12.22
2022-10-08T23:18:55.872Z,12.14
2022-10-08T23:21:23.899Z,12.19
2022-10-08T23:23:51.981Z,12.15
2022-10-08T23:26:19.810Z,12.15
2022-10-08T23:28:51.178Z,12.13
2022-10-08T23:31:20.754Z,12.09
2022-10-08T23:33:49.772Z,12.04
2022-10-08T23:36:20.804Z,12.01
2022-10-08T23:38:49.039Z,12.01
2022-10-08T23:41:16.708Z,11.98
2022-10-08T23:43:46.513Z,11.98
2022-10-08T23:46:15.977Z,11.99
2022-10-08T23:48:43.937Z,11.96
2022-10-08T23:51:12.670Z,11.95
2022-10-08T23:53:42.356Z,11.91
2022-10-08T23:56:10.510Z,11.90
2022-10-08T23:58:38.199Z,11.87
